createdAt,value
2017-11-29T00:00:18.664Z,7.4
2017-11-29T00:02:21.443Z,3.5
2017-11-29T00:04:21.211Z,3.9
2017-11-29T00:06:18.051Z,2.3
2017-11-29T00:08:17.800Z,3.1
2017-11-29T00:10:17.603Z,6.8
2017-11-29T00:12:21.385Z,1.2
2017-11-29T00:14:21.195Z,3.8
2017-11-29T00:16:18.032Z,2.6
2017-11-29T00:18:17.777Z,2.5
2017-11-29T00:20:18.556Z,3
2017-11-29T00:22:21.344Z,4.7
2017-11-29T00:24:18.126Z,2.7
2017-11-29T00:26:17.929Z,3.1
2017-11-29T00:28:17.701Z,4.5
2017-11-29T00:30:18.504Z,2.2
2017-11-29T00:32:18.297Z,3.2
2017-11-29T00:34:18.078Z,1.7
2017-11-29T00:36:17.833Z,1.4
2017-11-29T00:38:21.604Z,5.3
2017-11-29T00:40:17.428Z,4.6
2017-11-29T00:42:18.182Z,1.9
2017-11-29T00:44:20.972Z,2.8
2017-11-29T00:46:17.738Z,2.4
2017-11-29T00:48:21.555Z,2
2017-11-29T00:50:18.329Z,3.4
2017-11-29T00:52:18.113Z,2.4
2017-11-29T00:54:17.873Z,4.4
2017-11-29T00:56:17.664Z,2.9
2017-11-29T00:58:18.430Z,2
2017-11-29T01:00:18.210Z,8.1
2017-11-29T01:02:17.969Z,8.2
2017-11-29T01:04:20.763Z,2.6
2017-11-29T01:06:17.548Z,5.2
2017-11-29T01:08:18.319Z,3.6
2017-11-29T01:10:18.077Z,5
2017-11-29T01:12:17.870Z,3.6
2017-11-29T01:14:18.604Z,3.3
2017-11-29T01:16:17.403Z,7.1
2017-11-29T01:18:18.157Z,2.5
2017-11-29T01:20:17.950Z,2.5
2017-11-29T01:22:17.711Z,3.9
2017-11-29T01:24:18.489Z,2.3
2017-11-29T01:26:18.237Z,1.1
2017-11-29T01:28:21.013Z,7.2
2017-11-29T01:30:17.798Z,5.4
2017-11-29T01:32:18.570Z,4.2
2017-11-29T01:34:18.312Z,3.3
2017-11-29T01:36:17.074Z,4.5
2017-11-29T01:38:20.835Z,2.2
2017-11-29T01:40:17.618Z,9.1
2017-11-29T01:42:18.396Z,4
2017-11-29T01:44:18.151Z,3.1
2017-11-29T01:46:17.938Z,4.8
2017-11-29T01:48:17.720Z,1.6
2017-11-29T01:50:18.454Z,8.3
2017-11-29T01:52:18.236Z,3.5
2017-11-29T01:54:17.978Z,3.3
2017-11-29T01:56:17.750Z,4.1
2017-11-29T01:58:18.529Z,2.4
2017-11-29T02:00:18.290Z,2.1
2017-11-29T02:02:18.061Z,5.5
2017-11-29T02:04:17.799Z,4.6
2017-11-29T02:06:17.566Z,3.8
2017-11-29T02:08:18.339Z,3.9
2017-11-29T02:10:18.066Z,6.4
2017-11-29T02:12:17.840Z,4.1
2017-11-29T02:14:18.622Z,2.2
2017-11-29T02:16:17.338Z,1.8
2017-11-29T02:18:18.131Z,2.9
2017-11-29T02:20:17.869Z,2.7
2017-11-29T02:22:18.627Z,4.5
2017-11-29T02:24:18.400Z,6.2
2017-11-29T02:28:17.908Z,3.2
2017-11-29T02:30:18.634Z,5.9
2017-11-29T02:32:18.406Z,5.8
2017-11-29T02:34:18.176Z,1.5
2017-11-29T02:36:17.947Z,3.3
2017-11-29T02:38:17.689Z,4.7
2017-11-29T02:40:17.450Z,5.9
2017-11-29T02:42:18.174Z,4.7
2017-11-29T02:44:17.933Z,2.6
2017-11-29T02:46:17.689Z,2.4
2017-11-29T02:48:18.430Z,7
2017-11-29T02:50:18.186Z,2.3
2017-11-29T02:52:17.929Z,2.7
2017-11-29T02:54:17.681Z,7
2017-11-29T02:56:17.437Z,4.6
2017-11-29T02:58:18.178Z,5.3
2017-11-29T03:00:17.915Z,2.1
2017-11-29T03:02:18.659Z,2.8
2017-11-29T03:04:18.416Z,3.1
2017-11-29T03:06:17.128Z,5.3
2017-11-29T03:08:17.878Z,6.7
2017-11-29T03:10:17.610Z,5.2
2017-11-29T03:12:18.379Z,3
2017-11-29T03:14:18.120Z,3.7
2017-11-29T03:16:17.821Z,4.6
2017-11-29T03:18:18.592Z,2.3
2017-11-29T03:20:18.328Z,4.2
2017-11-29T03:22:18.072Z,6.7
2017-11-29T03:24:17.852Z,3.2
2017-11-29T03:26:17.574Z,2
2017-11-29T03:28:18.324Z,2.2
2017-11-29T03:30:18.065Z,4.3
2017-11-29T03:32:17.782Z,1.8
2017-11-29T03:34:18.532Z,4.3
2017-11-29T03:36:17.275Z,6.5
2017-11-29T03:38:18.005Z,3.2
2017-11-29T03:40:17.742Z,5.4
2017-11-29T03:42:18.476Z,6.4
2017-11-29T03:44:18.223Z,3.8
2017-11-29T03:46:17.961Z,4.8
2017-11-29T03:48:17.676Z,7.7
2017-11-29T03:50:18.415Z,5.9
2017-11-29T03:52:18.181Z,6
2017-11-29T03:54:17.939Z,4.2
2017-11-29T03:56:18.637Z,5.9
2017-11-29T03:58:18.386Z,4.7
2017-11-29T04:00:18.129Z,3.4
2017-11-29T04:02:17.880Z,9
2017-11-29T04:04:18.655Z,3.5
2017-11-29T04:06:17.360Z,4.4
2017-11-29T04:08:18.098Z,4
2017-11-29T04:10:17.875Z,7.4
2017-11-29T04:12:18.557Z,7
2017-11-29T04:14:18.315Z,4.3
2017-11-29T04:16:18.019Z,6
2017-11-29T04:18:17.768Z,6.4
2017-11-29T04:20:18.497Z,6.1
2017-11-29T04:22:18.232Z,4.1
2017-11-29T04:24:18.040Z,7
2017-11-29T04:26:21.706Z,5.1
2017-11-29T04:28:18.387Z,3.4
2017-11-29T04:30:18.119Z,5.2
2017-11-29T04:32:17.851Z,5.3
2017-11-29T04:34:18.561Z,4.4
2017-11-29T04:36:17.272Z,5.8
2017-11-29T04:38:17.985Z,6.5
2017-11-29T04:40:17.697Z,5
2017-11-29T04:42:18.417Z,7.2
2017-11-29T04:44:18.157Z,6.2
2017-11-29T04:46:17.858Z,6.4
2017-11-29T04:48:18.550Z,6.8
2017-11-29T04:50:18.295Z,5.8
2017-11-29T04:52:17.993Z,6.3
2017-11-29T04:54:17.713Z,7.1
2017-11-29T04:56:17.431Z,4.3
2017-11-29T04:58:18.171Z,5.9
2017-11-29T05:00:17.878Z,5.2
2017-11-29T05:02:18.611Z,5.5
2017-11-29T05:04:18.310Z,3.7
2017-11-29T05:06:18.040Z,6.5
2017-11-29T05:08:17.773Z,4.3
2017-11-29T05:10:17.528Z,8.9
2017-11-29T05:12:18.234Z,4.1
2017-11-29T05:14:17.967Z,9.9
2017-11-29T05:16:17.662Z,8.8
2017-11-29T05:18:18.393Z,5.6
2017-11-29T05:20:18.095Z,10.7
2017-11-29T05:22:17.792Z,9.2
2017-11-29T05:24:18.515Z,7.4
2017-11-29T05:26:18.208Z,8
2017-11-29T05:28:17.920Z,9
2017-11-29T05:30:18.629Z,6.4
2017-11-29T05:32:18.338Z,6.2
2017-11-29T05:34:18.045Z,16.5
2017-11-29T05:36:17.722Z,10.4
2017-11-29T05:38:18.457Z,6.3
2017-11-29T05:42:17.863Z,4
2017-11-29T05:44:18.591Z,6.7
2017-11-29T05:46:17.314Z,5.5
2017-11-29T05:48:17.990Z,8
2017-11-29T05:50:17.693Z,6.8
2017-11-29T05:52:18.415Z,10
2017-11-29T05:54:18.137Z,7.1
2017-11-29T05:56:17.840Z,7.8
2017-11-29T05:58:18.536Z,9.4
2017-11-29T06:00:18.253Z,11.4
2017-11-29T06:02:17.986Z,5.8
2017-11-29T06:06:17.394Z,5.6
2017-11-29T06:08:18.116Z,6.6
2017-11-29T06:10:17.829Z,5.3
2017-11-29T06:12:18.542Z,5.2
2017-11-29T06:14:18.251Z,6.4
2017-11-29T06:16:17.995Z,6.3
2017-11-29T06:18:17.684Z,5.9
2017-11-29T06:20:18.399Z,4.4
2017-11-29T06:22:18.098Z,6.3
2017-11-29T06:24:17.851Z,4.2
2017-11-29T06:26:17.532Z,12.9
2017-11-29T06:28:18.278Z,6.3
2017-11-29T06:30:17.987Z,6.1
2017-11-29T06:32:17.700Z,8.4
2017-11-29T06:34:18.373Z,7.5
2017-11-29T06:36:17.098Z,8.4
2017-11-29T06:38:17.816Z,5.8
2017-11-29T06:40:17.551Z,5.1
2017-11-29T06:42:18.262Z,7.2
2017-11-29T06:44:17.961Z,5.6
2017-11-29T06:46:17.686Z,4.9
2017-11-29T06:48:18.404Z,7.9
2017-11-29T06:50:18.130Z,5.4
2017-11-29T06:52:17.835Z,6.3
2017-11-29T06:54:18.578Z,6.3
2017-11-29T06:56:18.274Z,5.6
2017-11-29T06:58:18.021Z,5.9
2017-11-29T07:00:17.733Z,9.7
2017-11-29T07:02:18.451Z,7.3
2017-11-29T07:04:18.174Z,12.4
2017-11-29T07:06:16.896Z,5.9
2017-11-29T07:08:18.639Z,8.7
2017-11-29T07:10:17.373Z,6.5
2017-11-29T07:12:18.080Z,8.8
2017-11-29T07:14:17.819Z,9
2017-11-29T07:16:17.550Z,4.6
2017-11-29T07:18:18.266Z,5.6
2017-11-29T07:20:18.014Z,6.1
2017-11-29T07:22:17.718Z,4.2
2017-11-29T07:24:18.441Z,7.4
2017-11-29T07:26:21.170Z,7
2017-11-29T07:28:17.911Z,4.8
2017-11-29T07:30:18.654Z,5.8
2017-11-29T07:32:18.385Z,7
2017-11-29T07:34:18.085Z,7.5
2017-11-29T07:36:17.828Z,4.9
2017-11-29T07:38:18.558Z,5.9
2017-11-29T07:40:17.267Z,7
2017-11-29T07:42:17.990Z,8.3
2017-11-29T07:44:17.683Z,7.8
2017-11-29T07:46:17.408Z,4.9
2017-11-29T07:48:18.121Z,5.7
2017-11-29T07:50:17.844Z,10.6
2017-11-29T07:52:18.531Z,6
2017-11-29T07:54:18.256Z,7.9
2017-11-29T07:56:20.974Z,9.6
2017-11-29T07:58:17.681Z,6.6
2017-11-29T08:00:18.441Z,7.6
2017-11-29T08:02:18.115Z,8.1
2017-11-29T08:04:17.822Z,7.3
2017-11-29T08:06:17.560Z,8.4
2017-11-29T08:08:18.255Z,9.7
2017-11-29T08:10:17.999Z,11.6
2017-11-29T08:12:17.725Z,8.3
2017-11-29T08:14:18.469Z,10.8
2017-11-29T08:16:18.216Z,8.8
2017-11-29T08:18:17.912Z,10.3
2017-11-29T08:20:18.666Z,8.6
2017-11-29T08:22:18.404Z,7.5
2017-11-29T08:24:18.139Z,10.7
2017-11-29T08:26:16.887Z,10.1
2017-11-29T08:28:18.582Z,6.7
2017-11-29T08:30:18.334Z,6.3
2017-11-29T08:32:18.090Z,4.6
2017-11-29T08:34:17.781Z,10
2017-11-29T08:36:17.513Z,6.5
2017-11-29T08:38:18.325Z,7.5
2017-11-29T08:40:17.984Z,7.7
2017-11-29T08:42:17.722Z,6.2
2017-11-29T08:44:18.448Z,10.2
2017-11-29T08:46:21.176Z,6.2
2017-11-29T08:48:17.915Z,7.5
2017-11-29T08:50:18.670Z,7.3
2017-11-29T08:52:18.388Z,6.9
2017-11-29T08:54:18.168Z,4.7
2017-11-29T08:56:17.883Z,6.9
2017-11-29T09:00:17.378Z,7.4
2017-11-29T09:02:18.108Z,6.3
2017-11-29T09:04:17.823Z,6.9
2017-11-29T09:06:17.602Z,7.8
2017-11-29T09:08:18.295Z,9.7
2017-11-29T09:10:18.053Z,5.4
2017-11-29T09:14:17.567Z,10.7
2017-11-29T09:16:17.309Z,7.1
2017-11-29T09:18:18.062Z,4.9
2017-11-29T09:20:17.781Z,9.8
2017-11-29T09:22:18.546Z,6.2
2017-11-29T09:24:18.286Z,5.5
2017-11-29T09:26:17.026Z,7.2
2017-11-29T09:28:17.762Z,9.2
2017-11-29T09:30:18.527Z,7
2017-11-29T09:32:18.262Z,8.6
2017-11-29T09:34:18.019Z,6.8
2017-11-29T09:36:17.764Z,10
2017-11-29T09:38:18.519Z,6.4
2017-11-29T09:40:17.264Z,7.3
2017-11-29T09:42:18.018Z,6.3
2017-11-29T09:44:17.780Z,7.7
2017-11-29T09:46:17.526Z,4.9
2017-11-29T09:48:18.261Z,6.9
2017-11-29T09:50:17.976Z,7.4
2017-11-29T09:52:17.730Z,7.5
2017-11-29T09:54:18.496Z,8.7
2017-11-29T09:56:17.269Z,7.1
2017-11-29T09:58:18.067Z,8.1
2017-11-29T10:00:17.779Z,5.9
2017-11-29T10:02:18.539Z,3.8
2017-11-29T10:04:18.289Z,3.9
2017-11-29T10:06:18.022Z,6.2
2017-11-29T10:08:17.804Z,5.6
2017-11-29T10:10:17.562Z,5.1
2017-11-29T10:12:18.323Z,8.9
2017-11-29T10:14:18.106Z,7.5
2017-11-29T10:16:16.847Z,3.8
2017-11-29T10:18:17.636Z,7.3
2017-11-29T10:20:18.393Z,5.6
2017-11-29T10:22:18.138Z,4.6
2017-11-29T10:24:17.910Z,5.6
2017-11-29T10:26:17.652Z,6.1
2017-11-29T10:28:21.446Z,5.1
2017-11-29T10:30:18.219Z,5.9
2017-11-29T10:32:18.012Z,6.3
2017-11-29T10:34:17.781Z,6.6
2017-11-29T10:36:17.527Z,6.4
2017-11-29T10:38:18.334Z,5.4
2017-11-29T10:40:18.081Z,5.3
2017-11-29T10:42:17.894Z,8.8
2017-11-29T10:44:18.650Z,3.1
2017-11-29T10:46:17.408Z,4.3
2017-11-29T10:48:18.189Z,3.3
2017-11-29T10:50:17.948Z,8
2017-11-29T10:52:20.744Z,11.5
2017-11-29T10:54:18.534Z,9.4
2017-11-29T10:56:17.320Z,8.9
2017-11-29T11:00:17.872Z,9.7
2017-11-29T11:02:18.652Z,3.9
2017-11-29T11:04:18.431Z,8.7
2017-11-29T11:06:17.203Z,4.5
2017-11-29T11:08:20.954Z,4.1
2017-11-29T11:10:17.791Z,5
2017-11-29T11:12:18.573Z,4.8
2017-11-29T11:14:18.356Z,4.6
2017-11-29T11:16:18.125Z,5.6
2017-11-29T11:18:17.915Z,3.6
2017-11-29T11:20:18.695Z,2.8
2017-11-29T11:22:21.509Z,2.9
2017-11-29T11:24:18.317Z,6.3
2017-11-29T11:26:17.095Z,2.2
2017-11-29T11:28:17.909Z,5.3
2017-11-29T11:30:18.698Z,6.1
2017-11-29T11:32:18.482Z,4.5
2017-11-29T11:34:18.299Z,4.1
2017-11-29T11:36:17.071Z,5.4
2017-11-29T11:38:20.854Z,3.2
2017-11-29T11:40:17.668Z,3.6
2017-11-29T11:42:17.488Z,3.9
2017-11-29T11:44:21.282Z,8.8
2017-11-29T11:46:17.093Z,10
2017-11-29T11:48:20.904Z,6.3
2017-11-29T11:50:21.723Z,4.4
2017-11-29T11:52:21.519Z,7
2017-11-29T11:54:17.349Z,6.3
2017-11-29T11:56:17.182Z,5.9
2017-11-29T11:58:20.983Z,5.6
2017-11-29T12:00:20.780Z,6.5
2017-11-29T12:02:17.630Z,10
2017-11-29T12:04:21.411Z,8.7
2017-11-29T12:06:18.273Z,6.5
2017-11-29T12:08:18.072Z,8.3
2017-11-29T12:10:17.897Z,8.5
2017-11-29T12:12:21.720Z,7.6
2017-11-29T12:14:21.546Z,7.9
2017-11-29T12:16:17.356Z,10.9
2017-11-29T12:18:18.182Z,10.2
2017-11-29T12:20:18.008Z,8
2017-11-29T12:22:20.840Z,14.2
2017-11-29T12:24:18.648Z,7.3
2017-11-29T12:26:17.451Z,8.8
2017-11-29T12:28:21.243Z,8.2
2017-11-29T12:30:17.089Z,12.9
2017-11-29T12:32:17.865Z,9.3
2017-11-29T12:34:21.670Z,6
2017-11-29T12:36:17.504Z,12.8
2017-11-29T12:38:18.297Z,7
2017-11-29T12:40:18.102Z,9.7
2017-11-29T12:42:20.911Z,5.4
2017-11-29T12:44:21.730Z,6.3
2017-11-29T12:46:17.557Z,6.5
2017-11-29T12:48:18.332Z,9.7
2017-11-29T12:50:18.132Z,6.1
2017-11-29T12:52:20.918Z,7.6
2017-11-29T12:54:17.791Z,10
2017-11-29T12:56:17.575Z,7.6
2017-11-29T12:58:17.354Z,8
2017-11-29T13:00:18.181Z,10.6
2017-11-29T13:02:20.988Z,7.2
2017-11-29T13:04:16.838Z,6
2017-11-29T13:06:17.642Z,7.1
2017-11-29T13:08:21.430Z,5.6
2017-11-29T13:10:17.266Z,7.5
2017-11-29T13:12:21.096Z,9.2
2017-11-29T13:14:20.861Z,5.6
2017-11-29T13:16:17.695Z,7
2017-11-29T13:18:18.509Z,8.3
2017-11-29T13:20:21.337Z,6.5
2017-11-29T13:22:18.146Z,8.1
2017-11-29T13:24:16.957Z,9.3
2017-11-29T13:26:17.801Z,6.6
2017-11-29T13:28:21.607Z,10.7
2017-11-29T13:30:18.441Z,9.3
2017-11-29T13:32:17.298Z,8.5
2017-11-29T13:34:21.088Z,8.4
2017-11-29T13:36:16.947Z,6.3
2017-11-29T13:38:16.784Z,8.6
2017-11-29T13:40:17.621Z,11.2
2017-11-29T13:42:21.441Z,6.9
2017-11-29T13:44:21.240Z,7.1
2017-11-29T13:46:18.095Z,7.6
2017-11-29T13:48:20.892Z,8.7
2017-11-29T13:50:21.698Z,6.9
2017-11-29T13:52:17.521Z,8.6
2017-11-29T13:54:17.407Z,10.3
2017-11-29T13:56:18.202Z,7.7
2017-11-29T13:58:17.989Z,14.3
2017-11-29T14:00:17.790Z,9.1
2017-11-29T14:02:21.619Z,12.8
2017-11-29T14:04:18.394Z,12.7
2017-11-29T14:06:18.233Z,16.9
2017-11-29T14:08:18.040Z,13
2017-11-29T14:10:17.823Z,9.9
2017-11-29T14:12:21.619Z,10.3
2017-11-29T14:14:17.467Z,9
2017-11-29T14:16:18.252Z,9.1
2017-11-29T14:18:18.032Z,14.1
2017-11-29T14:20:20.808Z,13.6
2017-11-29T14:22:17.605Z,12.2
2017-11-29T14:24:17.457Z,8.9
2017-11-29T14:26:17.235Z,9.1
2017-11-29T14:28:21.021Z,10.7
2017-11-29T14:30:20.828Z,8.7
2017-11-29T14:32:18.618Z,9.7
2017-11-29T14:34:17.422Z,8.6
2017-11-29T14:36:18.260Z,7.9
2017-11-29T14:38:18.029Z,11.8
2017-11-29T14:40:17.800Z,9.4
2017-11-29T14:42:21.565Z,8.1
2017-11-29T14:44:21.374Z,7.6
2017-11-29T14:46:18.169Z,13.2
2017-11-29T14:48:20.953Z,13.2
2017-11-29T14:50:20.720Z,7.7
2017-11-29T14:52:21.549Z,8.7
2017-11-29T14:54:18.330Z,10.2
2017-11-29T14:56:17.127Z,7.4
2017-11-29T14:58:17.876Z,7.7
2017-11-29T15:00:21.664Z,11.4
2017-11-29T15:02:21.457Z,12.7
2017-11-29T15:04:18.246Z,11.2
2017-11-29T15:06:18.011Z,14
2017-11-29T15:08:20.768Z,11.5
2017-11-29T15:10:17.597Z,12.4
2017-11-29T15:12:18.352Z,17.6
2017-11-29T15:14:21.143Z,17.1
2017-11-29T15:16:17.955Z,15.8
2017-11-29T15:18:17.771Z,15.8
2017-11-29T15:20:18.525Z,13.2
2017-11-29T15:22:18.309Z,15.4
2017-11-29T15:24:18.097Z,17.3
2017-11-29T15:26:17.871Z,12.6
2017-11-29T15:28:18.639Z,16.2
2017-11-29T15:30:18.440Z,14.3
2017-11-29T15:32:18.217Z,12
2017-11-29T15:34:18.033Z,12.4
2017-11-29T15:36:17.761Z,13.1
2017-11-29T15:38:18.514Z,12.3
2017-11-29T15:40:17.309Z,12.9
2017-11-29T15:42:18.056Z,20.4
2017-11-29T15:44:20.847Z,16.9
2017-11-29T15:46:17.631Z,14.4
2017-11-29T15:48:18.416Z,15.7
2017-11-29T15:50:18.201Z,11.6
2017-11-29T15:52:17.946Z,12.8
2017-11-29T15:54:17.720Z,14
2017-11-29T15:56:17.478Z,15.9
2017-11-29T15:58:18.231Z,13.6
2017-11-29T16:00:17.989Z,15.4
2017-11-29T16:02:17.763Z,12.6
2017-11-29T16:04:18.524Z,11.4
2017-11-29T16:06:17.297Z,12.4
2017-11-29T16:08:18.039Z,11.2
2017-11-29T16:10:17.747Z,10.8
2017-11-29T16:12:18.522Z,8.8
2017-11-29T16:14:18.303Z,8.9
2017-11-29T16:16:18.035Z,10.7
2017-11-29T16:18:17.785Z,14.3
2017-11-29T16:20:18.577Z,9.8
2017-11-29T16:22:18.301Z,15.8
2017-11-29T16:24:18.045Z,13.4
2017-11-29T16:26:16.781Z,15.6
2017-11-29T16:28:18.545Z,12
2017-11-29T16:30:18.280Z,13
2017-11-29T16:32:18.086Z,13.6
2017-11-29T16:34:17.780Z,11.9
2017-11-29T16:36:17.527Z,11.8
2017-11-29T16:38:18.307Z,10.4
2017-11-29T16:40:18.076Z,11.9
2017-11-29T16:42:17.811Z,13.7
2017-11-29T16:44:21.561Z,10.2
2017-11-29T16:46:21.334Z,13.4
2017-11-29T16:48:18.126Z,9.7
2017-11-29T16:50:17.842Z,9
2017-11-29T16:52:18.632Z,13.5
2017-11-29T16:54:18.375Z,11.6
2017-11-29T16:56:17.129Z,14.8
2017-11-29T16:58:17.879Z,10.1
2017-11-29T17:00:18.633Z,10.3
2017-11-29T17:02:18.389Z,11.4
2017-11-29T17:04:18.141Z,13
2017-11-29T17:06:16.906Z,12.6
2017-11-29T17:08:18.650Z,10.2
2017-11-29T17:10:17.382Z,11.5
2017-11-29T17:12:18.175Z,9.2
2017-11-29T17:14:17.916Z,11.3
2017-11-29T17:16:17.655Z,12.4
2017-11-29T17:18:18.391Z,12.4
2017-11-29T17:20:18.153Z,13.8
2017-11-29T17:22:17.909Z,15.8
2017-11-29T17:24:18.626Z,8.7
2017-11-29T17:26:17.379Z,10.4
2017-11-29T17:28:18.154Z,11.3
2017-11-29T17:30:17.905Z,10
2017-11-29T17:32:18.643Z,12.5
2017-11-29T17:34:18.410Z,16.4
2017-11-29T17:36:17.136Z,15.5
2017-11-29T17:38:17.894Z,12.6
2017-11-29T17:40:17.664Z,16.2
2017-11-29T17:42:18.386Z,12.4
2017-11-29T17:44:18.132Z,14.9
2017-11-29T17:46:16.902Z,16.6
2017-11-29T17:48:18.628Z,17.4
2017-11-29T17:50:18.362Z,13.2
2017-11-29T17:52:18.117Z,12.5
2017-11-29T17:54:17.892Z,10.7
2017-11-29T17:56:17.625Z,11.6
2017-11-29T17:58:18.367Z,12.9
2017-11-29T18:00:18.126Z,16.2
2017-11-29T18:02:17.864Z,17.8
2017-11-29T18:04:18.610Z,10.2
2017-11-29T18:06:21.338Z,14.8
2017-11-29T18:08:18.126Z,10.6
2017-11-29T18:10:17.889Z,14.2
2017-11-29T18:12:18.645Z,19.7
2017-11-29T18:14:18.410Z,17.7
2017-11-29T18:16:18.188Z,19.6
2017-11-29T18:18:17.961Z,12.9
2017-11-29T18:20:17.715Z,11.9
2017-11-29T18:22:18.454Z,11.1
2017-11-29T18:24:18.232Z,11.6
2017-11-29T18:26:16.982Z,14.8
2017-11-29T18:28:17.772Z,15.5
2017-11-29T18:30:18.480Z,13.8
2017-11-29T18:32:18.258Z,17
2017-11-29T18:34:18.032Z,22.7
2017-11-29T18:36:17.759Z,17.7
2017-11-29T18:38:18.481Z,12.9
2017-11-29T18:40:17.265Z,17.8
2017-11-29T18:42:17.995Z,14.2
2017-11-29T18:44:17.750Z,12.5
2017-11-29T18:46:17.509Z,15.1
2017-11-29T18:48:18.254Z,14.1
2017-11-29T18:50:18.050Z,13.3
2017-11-29T18:52:17.773Z,24.4
2017-11-29T18:54:18.492Z,13.7
2017-11-29T18:56:18.266Z,10.5
2017-11-29T18:58:18.013Z,11.4
2017-11-29T19:00:17.751Z,15.1
2017-11-29T19:02:18.535Z,11.7
2017-11-29T19:04:18.290Z,10.1
2017-11-29T19:06:17.047Z,12.1
2017-11-29T19:08:17.777Z,13.4
2017-11-29T19:10:17.537Z,15.8
2017-11-29T19:12:18.278Z,14.2
2017-11-29T19:14:18.012Z,12.5
2017-11-29T19:16:17.749Z,13.3
2017-11-29T19:18:18.479Z,12.5
2017-11-29T19:20:18.239Z,17
2017-11-29T19:22:17.975Z,12.1
2017-11-29T19:24:17.723Z,11.2
2017-11-29T19:26:17.476Z,13.3
2017-11-29T19:28:18.187Z,12.9
2017-11-29T19:30:17.922Z,14.4
2017-11-29T19:32:17.675Z,18.2
2017-11-29T19:34:18.385Z,12.5
2017-11-29T19:36:18.102Z,17.6
2017-11-29T19:38:17.865Z,13.1
2017-11-29T19:40:17.599Z,12.3
2017-11-29T19:42:18.303Z,14.1
2017-11-29T19:44:18.047Z,13.3
2017-11-29T19:46:17.783Z,15.1
2017-11-29T19:48:18.541Z,13.6
2017-11-29T19:50:18.237Z,14.3
2017-11-29T19:52:18.001Z,17.3
2017-11-29T19:54:17.743Z,15.1
2017-11-29T19:56:18.459Z,13.1
2017-11-29T19:58:18.215Z,11.9
2017-11-29T20:00:17.960Z,14.3
2017-11-29T20:02:17.699Z,11.2
2017-11-29T20:04:18.461Z,13.7
2017-11-29T20:06:17.195Z,15.8
2017-11-29T20:08:17.939Z,15.7
2017-11-29T20:10:17.673Z,12.1
2017-11-29T20:12:18.398Z,13.7
2017-11-29T20:14:18.130Z,13.2
2017-11-29T20:16:16.889Z,11.7
2017-11-29T20:18:17.641Z,12.6
2017-11-29T20:20:18.363Z,14
2017-11-29T20:22:18.119Z,14.7
2017-11-29T20:24:17.854Z,15.7
2017-11-29T20:26:17.578Z,13.4
2017-11-29T20:28:18.322Z,13.1
2017-11-29T20:30:18.072Z,16.5
2017-11-29T20:32:17.786Z,14.1
2017-11-29T20:34:18.525Z,14.4
2017-11-29T20:36:17.261Z,17.2
2017-11-29T20:38:18.002Z,19
2017-11-29T20:40:17.740Z,14.4
2017-11-29T20:42:18.469Z,13.3
2017-11-29T20:44:18.214Z,16.4
2017-11-29T20:46:17.950Z,13.3
2017-11-29T20:48:17.697Z,10.7
2017-11-29T20:50:18.471Z,10.2
2017-11-29T20:52:18.193Z,11.9
2017-11-29T20:54:17.938Z,13.4
2017-11-29T20:56:21.674Z,12.7
2017-11-29T20:58:18.424Z,17.1
2017-11-29T21:00:18.169Z,11.7
2017-11-29T21:02:17.917Z,11.6
2017-11-29T21:04:18.630Z,14
2017-11-29T21:06:17.368Z,15.8
2017-11-29T21:08:18.163Z,11.9
2017-11-29T21:10:17.875Z,13.1
2017-11-29T21:12:18.635Z,13.4
2017-11-29T21:14:18.387Z,13.7
2017-11-29T21:16:18.112Z,16.2
2017-11-29T21:18:17.828Z,11
2017-11-29T21:20:18.552Z,13.1
2017-11-29T21:22:18.287Z,14.5
2017-11-29T21:24:18.053Z,12.3
2017-11-29T21:26:17.812Z,13.7
2017-11-29T21:28:18.586Z,15.3
2017-11-29T21:30:18.297Z,10.2
2017-11-29T21:32:18.057Z,14.6
2017-11-29T21:34:17.775Z,11.2
2017-11-29T21:36:17.513Z,11.4
2017-11-29T21:38:18.259Z,13.6
2017-11-29T21:40:17.974Z,16.8
2017-11-29T21:42:17.722Z,12.8
2017-11-29T21:44:18.453Z,15.5
2017-11-29T21:46:18.221Z,12.2
2017-11-29T21:48:17.963Z,17.9
2017-11-29T21:50:17.675Z,12.1
2017-11-29T21:52:18.441Z,14.8
2017-11-29T21:54:18.177Z,16.3
2017-11-29T21:56:16.946Z,10.7
2017-11-29T21:58:17.659Z,15.2
2017-11-29T22:00:18.419Z,13
2017-11-29T22:02:18.136Z,14.7
2017-11-29T22:04:17.943Z,15.8
2017-11-29T22:06:17.661Z,10.6
2017-11-29T22:08:18.413Z,17.7
2017-11-29T22:10:17.151Z,13.3
2017-11-29T22:12:17.915Z,14.8
2017-11-29T22:14:17.622Z,13.7
2017-11-29T22:16:17.384Z,16.9
2017-11-29T22:18:18.133Z,12.2
2017-11-29T22:20:17.866Z,12.9
2017-11-29T22:22:18.636Z,16.5
2017-11-29T22:24:18.344Z,12.3
2017-11-29T22:26:18.083Z,16.5
2017-11-29T22:28:17.873Z,11.3
2017-11-29T22:30:18.572Z,14.3
2017-11-29T22:32:18.291Z,12.6
2017-11-29T22:34:18.029Z,12.9
2017-11-29T22:36:17.770Z,12.2
2017-11-29T22:38:18.533Z,12.2
2017-11-29T22:40:17.250Z,11.6
2017-11-29T22:42:18.007Z,10.9
2017-11-29T22:44:17.768Z,11.2
2017-11-29T22:46:17.509Z,12
2017-11-29T22:48:18.245Z,13.3
2017-11-29T22:50:17.972Z,13.2
2017-11-29T22:52:17.719Z,15.1
2017-11-29T22:54:18.470Z,14.1
2017-11-29T22:56:18.204Z,11.6
2017-11-29T22:58:17.942Z,18.3
2017-11-29T23:00:17.663Z,16.9
2017-11-29T23:02:18.433Z,12.5
2017-11-29T23:04:18.223Z,15.5
2017-11-29T23:06:17.894Z,12.8
2017-11-29T23:08:18.642Z,13.5
2017-11-29T23:10:17.356Z,11.9
2017-11-29T23:12:18.082Z,12
2017-11-29T23:14:17.826Z,13
2017-11-29T23:16:17.560Z,12.8
2017-11-29T23:18:18.261Z,11.8
2017-11-29T23:20:17.983Z,11.1
2017-11-29T23:22:17.743Z,11.7
2017-11-29T23:24:18.414Z,12.1
2017-11-29T23:26:17.166Z,15.4
2017-11-29T23:28:17.874Z,14.3
2017-11-29T23:30:18.598Z,11.3
2017-11-29T23:32:18.326Z,14.5
2017-11-29T23:34:18.023Z,10.5
2017-11-29T23:36:17.760Z,12.7
2017-11-29T23:38:18.490Z,12.8
2017-11-29T23:40:17.208Z,15.9
2017-11-29T23:42:17.924Z,16.5
2017-11-29T23:44:17.680Z,12.1
2017-11-29T23:46:17.400Z,11.1
2017-11-29T23:48:18.167Z,12.4
2017-11-29T23:50:17.871Z,15.3
2017-11-29T23:52:18.591Z,13
2017-11-29T23:54:18.305Z,13.1
2017-11-29T23:56:17.036Z,13.8
2017-11-29T23:58:17.820Z,13.2
